Time;durP1;ratioP1;P1;durP2;ratioP2;P2;SDS_P1;SDS_P2;PMS_P1;PMS_P2;Temp;Humidity;BMP_temperature;BMP_pressure;BME280_temperature;BME280_humidity;BME280_pressure;Samples;Min_cycle;Max_cycle;Signal;HPM_P1;HPM_P2
2023/04/09 00:02:09;;;;;;;5.60;5.07;;;;;;;9.84;91.52;100993.66;5006592;28;1078931;-72
2023/04/09 00:04:34;;;;;;;5.50;5.00;;;;;;;9.83;91.66;100988.50;5049135;28;20229;-72
2023/04/09 00:06:59;;;;;;;6.03;5.53;;;;;;;9.79;92.19;100992.78;5040994;28;20595;-72
2023/04/09 00:09:25;;;;;;;6.30;5.80;;;;;;;9.77;92.32;100987.59;5043729;28;20226;-73
2023/04/09 00:11:50;;;;;;;6.53;6.03;;;;;;;9.76;92.51;100985.03;5040043;28;20294;-73
2023/04/09 00:14:16;;;;;;;6.30;5.80;;;;;;;9.73;92.75;100980.72;5050962;28;20515;-74
2023/04/09 00:16:41;;;;;;;7.30;6.60;;;;;;;9.71;92.70;100977.25;5042632;28;20201;-73
2023/04/09 00:19:06;;;;;;;6.53;6.03;;;;;;;9.67;92.65;100975.50;5051520;28;20221;-73
2023/04/09 00:21:32;;;;;;;7.13;6.53;;;;;;;9.65;92.59;100969.44;5045256;28;20186;-73
2023/04/09 00:23:57;;;;;;;7.50;6.80;;;;;;;9.63;92.65;100975.47;5042373;28;20207;-71
2023/04/09 00:26:22;;;;;;;7.53;6.93;;;;;;;9.60;92.62;100972.00;5045728;28;20185;-71
2023/04/09 00:28:48;;;;;;;7.53;6.83;;;;;;;9.58;93.04;100972.88;5055301;28;20190;-72
2023/04/09 00:31:13;;;;;;;7.00;6.50;;;;;;;9.56;93.61;100978.00;5046962;28;20191;-72
2023/04/09 00:33:38;;;;;;;6.50;6.00;;;;;;;9.54;93.93;100977.13;5035100;28;20295;-74
2023/04/09 00:36:04;;;;;;;6.40;5.90;;;;;;;9.53;94.09;100970.22;5033472;28;20202;-72
2023/04/09 00:38:29;;;;;;;6.73;6.23;;;;;;;9.51;94.36;100973.66;5043681;28;20218;-73
2023/04/09 00:40:55;;;;;;;6.60;6.10;;;;;;;9.48;94.16;100977.09;5044824;28;20691;-73
2023/04/09 00:43:20;;;;;;;7.53;6.93;;;;;;;9.48;94.15;100978.81;5049617;28;20199;-72
2023/04/09 00:45:46;;;;;;;6.93;6.33;;;;;;;9.43;94.42;100979.66;5046177;28;20199;-73
2023/04/09 00:48:12;;;;;;;7.10;6.50;;;;;;;9.42;94.76;100974.47;5034487;28;20614;-72
2023/04/09 00:50:39;;;;;;;7.33;6.80;;;;;;;9.44;94.72;100980.50;5045564;28;20178;-72
2023/04/09 00:53:05;;;;;;;6.73;6.23;;;;;;;9.40;94.69;100979.63;5041517;28;20229;-74
2023/04/09 00:55:30;;;;;;;6.83;6.23;;;;;;;9.38;94.61;100983.91;5053168;28;20175;-73
2023/04/09 00:57:56;;;;;;;7.27;6.67;;;;;;;9.34;94.57;100984.75;5041090;28;20209;-72
2023/04/09 01:00:21;;;;;;;7.47;6.90;;;;;;;9.31;94.71;100989.88;5041428;28;20194;-72
2023/04/09 01:02:47;;;;;;;7.67;6.97;;;;;;;9.26;95.13;100984.69;5036910;28;20596;-72
2023/04/09 01:05:14;;;;;;;6.73;6.23;;;;;;;9.23;95.46;100986.38;5042979;28;20363;-74
2023/04/09 01:08:00;;;;;;;7.43;6.83;;;;;;;9.24;95.61;100985.53;5043766;28;20568;-73
2023/04/09 01:10:50;;;;;;;7.77;7.17;;;;;;;9.23;96.00;100984.66;5041621;28;20229;-72
2023/04/09 01:13:27;;;;;;;8.53;7.80;;;;;;;9.24;95.16;100982.94;5033948;28;20284;-73
2023/04/09 01:15:59;;;;;;;8.00;7.30;;;;;;;9.23;95.89;100986.38;5041249;28;20192;-73
2023/04/09 01:18:32;;;;;;;7.60;7.00;;;;;;;9.20;96.15;100986.34;5049091;28;20178;-74
2023/04/09 01:21:01;;;;;;;7.63;6.93;;;;;;;9.19;96.16;100975.19;5045567;28;20262;-71
2023/04/09 01:23:46;;;;;;;8.07;7.47;;;;;;;9.18;95.96;100977.72;5045006;28;20199;-72
2023/04/09 01:26:46;;;;;;;8.63;7.90;;;;;;;9.17;96.00;100978.56;5036856;28;20206;-72
2023/04/09 01:29:14;;;;;;;8.30;7.60;;;;;;;9.14;95.96;100974.25;5030026;28;20670;-71
2023/04/09 01:31:42;;;;;;;8.80;8.10;;;;;;;9.10;95.64;100978.53;5053160;28;20201;-71
2023/04/09 01:34:09;;;;;;;8.67;7.87;;;;;;;9.06;95.75;100979.38;5044586;28;20201;-74
2023/04/09 01:36:36;;;;;;;8.40;7.70;;;;;;;9.03;96.13;100970.75;5053267;28;20285;-72
2023/04/09 01:39:02;;;;;;;8.53;7.83;;;;;;;9.02;95.95;100979.34;5032236;28;20192;-71
2023/04/09 01:41:31;;;;;;;8.30;7.67;;;;;;;9.02;95.97;100974.16;5043525;28;20255;-72
2023/04/09 01:44:00;;;;;;;9.23;8.53;;;;;;;8.98;95.97;100976.72;5046965;28;20210;-71
2023/04/09 01:46:26;;;;;;;9.70;8.93;;;;;;;8.95;96.55;100981.00;5036412;28;20198;-71
2023/04/09 01:48:52;;;;;;;8.87;8.17;;;;;;;8.92;96.47;100976.69;5037699;28;20190;-72
2023/04/09 01:51:18;;;;;;;9.80;9.00;;;;;;;8.89;96.26;100971.50;5036613;28;20198;-72
2023/04/09 01:53:43;;;;;;;9.60;8.90;;;;;;;8.89;96.12;100976.66;5037760;28;20216;-73
2023/04/09 01:56:09;;;;;;;10.30;9.50;;;;;;;8.84;96.30;100974.03;5046355;28;20707;-71
2023/04/09 01:58:35;;;;;;;10.20;9.40;;;;;;;8.84;95.96;100974.03;5042674;28;20680;-73
2023/04/09 02:01:15;;;;;;;9.80;9.00;;;;;;;8.85;95.82;100980.91;5039468;28;20201;-72
2023/04/09 02:03:47;;;;;;;9.73;8.93;;;;;;;8.83;95.76;100980.03;5034873;28;20671;-72
2023/04/09 02:06:21;;;;;;;9.97;9.17;;;;;;;8.87;95.89;100980.03;5052064;28;20287;-72
2023/04/09 02:08:47;;;;;;;9.97;9.07;;;;;;;8.89;95.67;100986.09;5040825;28;20220;-71
2023/04/09 02:11:14;;;;;;;9.90;9.10;;;;;;;8.89;96.38;100986.97;5035986;28;20187;-71
2023/04/09 02:13:40;;;;;;;8.77;8.07;;;;;;;8.88;96.84;100980.06;5039051;28;20229;-73
2023/04/09 02:16:07;;;;;;;8.83;8.13;;;;;;;8.89;96.98;100981.81;5036543;28;20684;-71
2023/04/09 02:18:33;;;;;;;7.60;7.00;;;;;;;8.85;97.53;100980.91;5038810;28;20642;-71
2023/04/09 02:20:58;;;;;;;9.17;8.43;;;;;;;8.87;97.33;100980.94;5034740;28;20191;-71
2023/04/09 02:23:24;;;;;;;9.00;8.20;;;;;;;8.87;97.82;100980.03;5040729;28;20285;-72
2023/04/09 02:25:51;;;;;;;8.53;7.90;;;;;;;8.82;97.98;100974.84;5038407;28;20772;-71
2023/04/09 02:28:16;;;;;;;8.77;8.03;;;;;;;8.79;97.41;100980.84;5039392;28;20179;-72
2023/04/09 02:30:42;;;;;;;9.33;8.53;;;;;;;8.75;97.81;100967.91;5032773;28;20226;-72
2023/04/09 02:33:07;;;;;;;9.20;8.50;;;;;;;8.72;98.10;100973.03;5034512;28;20222;-72
2023/04/09 02:35:32;;;;;;;8.90;8.17;;;;;;;8.66;98.57;100971.28;5033643;28;20648;-72
2023/04/09 02:37:58;;;;;;;9.07;8.37;;;;;;;8.64;98.62;100970.38;5051790;28;20194;-70
2023/04/09 02:40:23;;;;;;;8.97;8.27;;;;;;;8.61;98.79;100966.06;5047059;28;20530;-72
2023/04/09 02:42:50;;;;;;;8.77;8.07;;;;;;;8.57;98.89;100966.00;5033138;28;20178;-72
2023/04/09 02:45:16;;;;;;;8.37;7.67;;;;;;;8.54;98.88;100964.25;5028773;28;20279;-73
2023/04/09 02:47:41;;;;;;;9.20;8.40;;;;;;;8.50;99.12;100967.66;5050096;28;20651;-72
2023/04/09 02:50:07;;;;;;;9.47;8.63;;;;;;;8.49;99.05;100971.97;5052218;28;20548;-72
2023/04/09 02:52:32;;;;;;;9.47;8.70;;;;;;;8.49;98.52;100965.91;5042851;28;20212;-72
2023/04/09 02:54:57;;;;;;;10.27;9.47;;;;;;;8.49;98.02;100978.81;5039363;28;20238;-71
2023/04/09 02:57:23;;;;;;;9.90;9.10;;;;;;;8.46;98.12;100971.03;5036389;28;20304;-71
2023/04/09 02:59:48;;;;;;;9.57;8.77;;;;;;;8.47;98.58;100978.78;5037200;28;20760;-73
2023/04/09 03:02:14;;;;;;;10.77;9.97;;;;;;;8.46;98.29;100976.19;5045646;28;20207;-72
2023/04/09 03:04:39;;;;;;;9.73;8.93;;;;;;;8.39;98.62;100968.38;5052178;28;20229;-73
2023/04/09 03:07:05;;;;;;;9.30;8.60;;;;;;;8.42;98.95;100971.84;5043959;28;20199;-72
2023/04/09 03:09:30;;;;;;;10.23;9.43;;;;;;;8.39;98.89;100967.53;5049538;28;20235;-71
2023/04/09 03:11:56;;;;;;;11.30;10.37;;;;;;;8.37;98.48;100961.47;5042475;28;20313;-75
2023/04/09 03:14:22;;;;;;;10.70;9.83;;;;;;;8.39;97.82;100963.22;5039274;28;20218;-71
2023/04/09 03:16:48;;;;;;;11.23;10.33;;;;;;;8.34;97.93;100957.13;5042021;28;20540;-71
2023/04/09 03:19:13;;;;;;;11.37;10.47;;;;;;;8.32;97.96;100955.41;5047295;28;20198;-72
2023/04/09 03:21:38;;;;;;;11.43;10.43;;;;;;;8.33;98.07;100954.53;5053685;28;20658;-71
2023/04/09 03:24:04;;;;;;;11.73;10.63;;;;;;;8.29;98.43;100956.22;5040655;28;20210;-72
2023/04/09 03:26:34;;;;;;;11.33;10.43;;;;;;;8.28;98.01;100958.78;5042198;28;20189;-73
2023/04/09 03:29:03;;;;;;;11.70;10.67;;;;;;;8.26;98.19;100956.19;5042064;28;20181;-72
2023/04/09 03:31:29;;;;;;;11.90;10.83;;;;;;;8.29;98.05;100950.19;5055021;28;20216;-73
2023/04/09 03:33:54;;;;;;;10.90;10.00;;;;;;;8.24;98.42;100953.56;5038663;28;20227;-72
2023/04/09 03:36:20;;;;;;;11.27;10.37;;;;;;;8.21;98.61;100950.09;5041993;28;20191;-72
2023/04/09 03:38:45;;;;;;;12.10;11.07;;;;;;;8.18;98.16;100947.50;5047708;28;20250;-71
2023/04/09 03:41:10;;;;;;;11.63;10.67;;;;;;;8.14;98.81;100953.47;5037195;28;20244;-72
2023/04/09 03:43:35;;;;;;;11.83;10.93;;;;;;;8.11;99.31;100958.59;5045557;28;20203;-72
2023/04/09 03:46:01;;;;;;;12.17;11.03;;;;;;;8.05;99.62;100960.25;5047792;28;20218;-71
2023/04/09 03:48:26;;;;;;;11.73;10.63;;;;;;;7.99;100.00;100954.16;5040700;28;20190;-73
2023/04/09 03:50:52;;;;;;;12.33;11.30;;;;;;;7.96;100.00;100961.84;5038027;28;20799;-72
2023/04/09 03:53:18;;;;;;;11.93;10.93;;;;;;;7.88;100.00;100964.31;5042308;28;20305;-73
2023/04/09 03:55:43;;;;;;;11.87;10.97;;;;;;;7.88;100.00;100964.31;5070340;28;20255;-74
2023/04/09 03:58:08;;;;;;;12.30;11.30;;;;;;;7.81;100.00;100965.94;5052742;28;20563;-72
2023/04/09 04:00:34;;;;;;;12.50;11.43;;;;;;;7.76;100.00;100968.47;5035043;28;20242;-73
2023/04/09 04:02:59;;;;;;;11.90;10.90;;;;;;;7.72;100.00;100961.53;5039221;28;20204;-72
2023/04/09 04:05:25;;;;;;;12.77;11.77;;;;;;;7.67;100.00;100962.31;5039925;28;20232;-72
2023/04/09 04:07:50;;;;;;;12.23;11.23;;;;;;;7.61;100.00;100963.97;5042439;28;20219;-73
2023/04/09 04:10:15;;;;;;;12.73;11.67;;;;;;;7.53;100.00;100957.84;5042204;28;20528;-72
2023/04/09 04:12:41;;;;;;;12.57;11.50;;;;;;;7.51;100.00;100961.25;5044440;28;20200;-72
2023/04/09 04:15:07;;;;;;;13.40;12.20;;;;;;;7.44;100.00;100963.72;5040887;28;20215;-73
2023/04/09 04:17:32;;;;;;;13.07;11.97;;;;;;;7.38;100.00;100962.75;5042335;28;20231;-72
2023/04/09 04:19:57;;;;;;;14.30;13.10;;;;;;;7.32;100.00;100967.00;5040634;28;20193;-71
2023/04/09 04:22:22;;;;;;;13.07;11.97;;;;;;;7.22;100.00;100972.81;5045937;28;20196;-72
2023/04/09 04:24:48;;;;;;;12.23;11.23;;;;;;;7.13;100.00;100977.84;5042004;28;20602;-71
2023/04/09 04:27:13;;;;;;;12.30;11.30;;;;;;;7.08;100.00;100975.19;5050067;28;20194;-72
2023/04/09 04:29:38;;;;;;;11.10;10.13;;;;;;;6.99;100.00;100968.19;5041002;28;20204;-72
2023/04/09 04:32:04;;;;;;;11.53;10.60;;;;;;;6.91;100.00;100980.03;5042534;28;20197;-72
2023/04/09 04:34:29;;;;;;;12.87;11.80;;;;;;;6.80;100.00;100969.59;5041108;28;20206;-72
2023/04/09 04:36:54;;;;;;;12.50;11.40;;;;;;;6.75;100.00;100978.91;5042078;28;20188;-72
2023/04/09 04:39:20;;;;;;;12.77;11.73;;;;;;;6.71;100.00;100974.53;5033253;28;20815;-72
2023/04/09 04:41:45;;;;;;;12.70;11.60;;;;;;;6.66;100.00;100973.59;5035498;28;20277;-72
2023/04/09 04:44:10;;;;;;;13.03;11.83;;;;;;;6.61;100.00;100977.78;5038880;28;20992;-71
2023/04/09 04:46:36;;;;;;;11.83;10.83;;;;;;;6.54;100.00;100974.25;5043144;28;20198;-72
2023/04/09 04:49:01;;;;;;;12.53;11.50;;;;;;;6.50;100.00;100977.59;5031746;28;20212;-73
2023/04/09 04:51:30;;;;;;;12.40;11.40;;;;;;;6.47;100.00;100975.84;5037535;28;20188;-71
2023/04/09 04:53:55;;;;;;;11.97;10.97;;;;;;;6.43;100.00;100975.75;5037726;28;20221;-72
2023/04/09 04:56:21;;;;;;;12.57;11.57;;;;;;;6.38;100.00;100978.22;5041047;28;20183;-72
2023/04/09 04:58:46;;;;;;;11.80;10.80;;;;;;;6.35;100.00;100978.19;5036107;28;20182;-72
2023/04/09 05:01:11;;;;;;;13.40;12.30;;;;;;;6.34;100.00;100976.44;5042505;28;20175;-73
2023/04/09 05:03:36;;;;;;;13.17;12.00;;;;;;;6.32;100.00;100980.69;5032207;28;20259;-73
2023/04/09 05:06:02;;;;;;;12.80;11.70;;;;;;;6.31;100.00;100977.22;5036022;28;20219;-72
2023/04/09 05:08:27;;;;;;;12.70;11.70;;;;;;;6.32;100.00;100978.09;5043046;28;20192;-72
2023/04/09 05:10:54;;;;;;;12.77;11.77;;;;;;;6.31;100.00;100990.09;5033132;28;20725;-72
2023/04/09 05:13:20;;;;;;;11.70;10.80;;;;;;;6.29;100.00;100978.91;5041031;28;20249;-73
2023/04/09 05:15:45;;;;;;;12.90;11.80;;;;;;;6.29;100.00;100984.03;5063252;28;20230;-71
2023/04/09 05:18:11;;;;;;;12.63;11.53;;;;;;;6.30;100.00;100995.19;5043709;28;20228;-72
2023/04/09 05:20:36;;;;;;;12.33;11.43;;;;;;;6.31;100.00;101000.38;5046213;28;20247;-72
2023/04/09 05:23:02;;;;;;;14.07;12.97;;;;;;;6.34;100.00;101002.16;5042102;28;20557;-70
2023/04/09 05:25:27;;;;;;;13.53;12.43;;;;;;;6.37;100.00;101000.50;5032125;28;20190;-72
2023/04/09 05:27:52;;;;;;;13.97;12.83;;;;;;;6.45;100.00;101010.06;5038798;28;20186;-72
2023/04/09 05:30:18;;;;;;;14.10;12.90;;;;;;;6.51;100.00;101005.88;5035600;28;20208;-71
2023/04/09 05:32:43;;;;;;;13.00;11.90;;;;;;;6.74;100.00;101002.91;5049908;28;20205;-72
2023/04/09 05:35:08;;;;;;;12.87;11.77;;;;;;;7.04;100.00;101019.72;5026979;28;20211;-72
2023/04/09 05:37:34;;;;;;;12.43;11.43;;;;;;;7.29;100.00;101009.84;5028951;28;20279;-72
2023/04/09 05:39:59;;;;;;;12.80;11.60;;;;;;;7.56;100.00;101013.72;5029885;28;20485;-72
2023/04/09 05:42:25;;;;;;;12.23;11.23;;;;;;;7.76;99.54;101004.53;5037649;28;20204;-73
2023/04/09 05:44:50;;;;;;;12.33;11.33;;;;;;;7.93;98.71;101012.53;5040583;28;20635;-71
2023/04/09 05:47:16;;;;;;;13.60;12.40;;;;;;;8.14;97.75;101005.91;5034073;28;20204;-73
2023/04/09 05:49:41;;;;;;;12.83;11.63;;;;;;;8.20;96.81;101005.97;5036980;28;20191;-72
2023/04/09 05:52:07;;;;;;;11.97;10.97;;;;;;;8.31;96.96;101005.25;5030244;28;20532;-73
2023/04/09 05:54:32;;;;;;;11.63;10.63;;;;;;;8.67;95.87;101003.97;5042917;28;20254;-73
2023/04/09 05:56:57;;;;;;;12.73;11.63;;;;;;;9.12;94.17;101005.25;5036426;28;20224;-71
2023/04/09 05:59:23;;;;;;;12.70;11.60;;;;;;;9.45;92.10;101002.91;5041404;28;20569;-71
2023/04/09 06:01:48;;;;;;;12.20;11.20;;;;;;;9.80;90.95;100998.81;5053836;28;20386;-71
2023/04/09 06:04:13;;;;;;;11.67;10.57;;;;;;;9.83;89.82;100999.69;5033120;28;20687;-72
2023/04/09 06:06:39;;;;;;;13.17;11.97;;;;;;;9.60;89.92;101009.91;5046610;28;20197;-72
2023/04/09 06:09:04;;;;;;;12.80;11.70;;;;;;;9.55;90.19;101009.88;5041535;28;20191;-73
2023/04/09 06:11:30;;;;;;;12.47;11.37;;;;;;;9.41;90.16;101007.19;5043078;28;20958;-72
2023/04/09 06:13:55;;;;;;;12.83;11.73;;;;;;;9.34;89.90;101007.13;5043719;28;20223;-73
2023/04/09 06:16:21;;;;;;;12.00;11.00;;;;;;;9.38;89.88;101007.16;5039700;28;20193;-70
2023/04/09 06:18:49;;;;;;;12.33;11.33;;;;;;;9.56;89.43;101005.56;5037612;28;20190;-72
2023/04/09 06:21:14;;;;;;;13.00;11.90;;;;;;;9.66;88.56;101004.78;5034340;28;20190;-72
2023/04/09 06:23:40;;;;;;;12.60;11.50;;;;;;;9.36;89.27;101011.47;5032664;28;20199;-72
2023/04/09 06:26:05;;;;;;;13.37;12.23;;;;;;;8.75;91.43;101020.38;5043748;28;20187;-72
2023/04/09 06:28:31;;;;;;;14.10;12.90;;;;;;;8.36;93.31;101021.66;5041448;28;20197;-72
2023/04/09 06:30:57;;;;;;;13.17;12.00;;;;;;;8.21;94.83;101012.88;5034468;28;20280;-73
2023/04/09 06:33:22;;;;;;;13.77;12.57;;;;;;;8.51;95.30;101014.13;5041518;28;20273;-73
2023/04/09 06:35:48;;;;;;;14.10;12.80;;;;;;;9.50;91.72;101014.16;5038251;28;20187;-73
2023/04/09 06:38:17;;;;;;;13.33;12.23;;;;;;;10.57;87.16;101013.84;5044713;28;20191;-73
2023/04/09 06:40:42;;;;;;;12.20;11.20;;;;;;;11.30;82.74;101012.22;5036567;28;20753;-72
2023/04/09 06:43:08;;;;;;;11.90;10.90;;;;;;;11.88;81.09;101019.00;5030573;28;20190;-72
2023/04/09 06:45:34;;;;;;;12.37;11.27;;;;;;;12.28;79.29;101014.59;5048738;28;20184;-73
2023/04/09 06:48:00;;;;;;;12.63;11.43;;;;;;;12.45;78.00;101009.31;5044326;28;20246;-74
2023/04/09 06:50:25;;;;;;;10.80;9.90;;;;;;;12.65;77.17;101019.59;5031291;28;20193;-73
2023/04/09 06:52:51;;;;;;;10.97;9.97;;;;;;;12.88;76.24;101018.59;5041405;28;20226;-73
2023/04/09 06:55:17;;;;;;;11.00;10.10;;;;;;;13.23;75.94;101017.50;5044249;28;20296;-73
2023/04/09 06:57:42;;;;;;;11.33;10.40;;;;;;;13.23;74.63;101004.50;5031724;28;20219;-72
2023/04/09 07:00:08;;;;;;;10.83;10.03;;;;;;;13.12;74.01;101014.97;5031641;28;20195;-72
2023/04/09 07:02:35;;;;;;;10.60;9.70;;;;;;;12.98;73.96;101017.66;5034674;28;20294;-73
2023/04/09 07:05:00;;;;;;;10.53;9.63;;;;;;;12.99;73.57;101016.78;5034835;28;20214;-72
2023/04/09 07:07:26;;;;;;;10.53;9.63;;;;;;;12.90;73.91;101015.13;5043767;28;21989;-74
2023/04/09 07:09:52;;;;;;;10.00;9.20;;;;;;;12.97;74.12;101018.53;5046336;28;20163;-75
2023/04/09 07:12:31;;;;;;;11.23;10.23;;;;;;;13.01;73.79;101015.03;5062731;28;20199;-74
2023/04/09 07:15:04;;;;;;;9.93;9.13;;;;;;;13.03;73.72;101013.28;5057423;28;20583;-73
2023/04/09 07:17:30;;;;;;;10.63;9.73;;;;;;;13.04;74.01;101017.63;5037037;28;20198;-73
2023/04/09 07:19:55;;;;;;;10.30;9.50;;;;;;;13.02;73.98;101014.16;5046859;28;20184;-74
2023/04/09 07:22:21;;;;;;;10.27;9.37;;;;;;;13.07;73.65;101015.00;5033126;28;20223;-73
2023/04/09 07:24:52;;;;;;;9.80;8.90;;;;;;;13.05;73.90;101021.06;5034523;28;20230;-72
2023/04/09 07:27:25;;;;;;;11.37;10.37;;;;;;;12.94;73.48;101019.41;5034343;28;20262;-74
2023/04/09 07:29:52;;;;;;;9.53;8.73;;;;;;;12.95;73.80;101015.94;5033810;28;20272;-73
2023/04/09 07:32:18;;;;;;;10.23;9.33;;;;;;;12.82;73.94;101006.53;5042680;28;20701;-73
2023/04/09 07:34:43;;;;;;;10.30;9.50;;;;;;;12.71;74.41;101010.91;5031015;28;20212;-72
2023/04/09 07:37:09;;;;;;;10.37;9.37;;;;;;;12.62;75.02;101020.47;5037920;28;20190;-73
2023/04/09 07:39:34;;;;;;;9.63;8.83;;;;;;;12.42;75.10;101015.41;5042277;28;20726;-72
2023/04/09 07:42:03;;;;;;;9.13;8.43;;;;;;;12.42;75.73;101015.41;5029274;28;20187;-73
2023/04/09 07:44:32;;;;;;;9.17;8.37;;;;;;;12.44;76.19;101029.25;5044421;28;20211;-73
2023/04/09 07:46:58;;;;;;;8.50;7.80;;;;;;;12.42;76.31;101024.91;5036333;28;20203;-74
2023/04/09 07:49:23;;;;;;;8.53;7.83;;;;;;;12.47;76.46;101015.38;5050911;28;20225;-73
2023/04/09 07:51:48;;;;;;;9.40;8.60;;;;;;;12.49;76.23;101017.06;5039890;28;20575;-73
2023/04/09 07:54:13;;;;;;;9.60;8.80;;;;;;;12.56;76.69;101023.09;5037282;28;21038;-73
2023/04/09 07:56:39;;;;;;;10.37;9.57;;;;;;;12.54;76.17;101013.59;5035801;28;20198;-74
2023/04/09 07:59:04;;;;;;;9.80;8.97;;;;;;;12.46;75.73;101022.31;5033195;28;20195;-74
2023/04/09 08:01:30;;;;;;;10.03;9.13;;;;;;;12.39;75.80;101027.53;5043729;28;20595;-72
2023/04/09 08:03:55;;;;;;;9.97;9.17;;;;;;;12.35;75.99;101029.25;5041007;28;20584;-73
2023/04/09 08:06:21;;;;;;;10.40;9.50;;;;;;;12.21;76.08;101026.75;5031851;28;20199;-74
2023/04/09 08:08:46;;;;;;;10.10;9.27;;;;;;;12.04;76.51;101021.59;5035514;28;20204;-72
2023/04/09 08:11:12;;;;;;;9.33;8.57;;;;;;;12.04;76.64;101021.59;5032341;28;20227;-72
2023/04/09 08:13:37;;;;;;;11.67;10.57;;;;;;;11.99;77.32;101031.16;5033451;28;20209;-73
2023/04/09 08:16:02;;;;;;;11.87;10.87;;;;;;;11.72;77.63;101035.50;5035407;28;20585;-72
2023/04/09 08:18:28;;;;;;;11.10;10.07;;;;;;;11.57;77.21;101039.81;5029425;28;20599;-72
2023/04/09 08:20:55;;;;;;;10.10;9.30;;;;;;;11.56;78.77;101029.47;5030606;28;20186;-73
2023/04/09 08:23:20;;;;;;;10.93;10.03;;;;;;;11.61;78.99;101032.03;5031252;28;20234;-71
2023/04/09 08:25:45;;;;;;;12.17;11.17;;;;;;;11.53;80.11;101045.00;5033393;28;20187;-74
2023/04/09 08:28:11;;;;;;;13.77;12.53;;;;;;;11.47;81.80;101037.25;5029262;28;20193;-72
2023/04/09 08:30:36;;;;;;;14.10;12.90;;;;;;;11.24;82.07;101036.41;5045947;28;20219;-73
2023/04/09 08:33:02;;;;;;;14.90;13.60;;;;;;;11.16;82.42;101039.84;5029138;28;20211;-72
2023/04/09 08:35:29;;;;;;;11.67;10.67;;;;;;;11.33;82.21;101037.25;5041664;28;20910;-73
2023/04/09 08:37:55;;;;;;;13.17;12.10;;;;;;;11.47;83.06;101035.50;5028236;28;20236;-75
2023/04/09 08:40:21;;;;;;;13.53;12.37;;;;;;;11.54;81.76;101037.25;5027410;28;20269;-73
2023/04/09 08:42:54;;;;;;;13.80;12.60;;;;;;;11.62;82.02;101031.19;5029008;28;20186;-73
2023/04/09 08:45:20;;;;;;;12.60;11.60;;;;;;;11.69;82.79;101025.97;5028789;28;20219;-74
2023/04/09 08:47:48;;;;;;;12.03;11.03;;;;;;;11.76;81.43;101028.56;5032583;28;20399;-74
2023/04/09 08:50:13;;;;;;;10.43;9.63;;;;;;;11.83;78.77;101028.56;5028371;28;20184;-71
2023/04/09 08:52:39;;;;;;;9.10;8.30;;;;;;;11.85;75.33;101028.53;5031144;28;20220;-75
2023/04/09 08:55:05;;;;;;;9.00;8.30;;;;;;;11.92;74.99;101030.25;5032409;28;20218;-73
2023/04/09 08:57:36;;;;;;;7.20;6.60;;;;;;;11.94;70.57;101014.69;5035291;28;20230;-74
2023/04/09 09:00:02;;;;;;;7.30;6.70;;;;;;;12.06;70.78;101032.84;5036105;28;20221;-73
2023/04/09 09:02:27;;;;;;;7.97;7.37;;;;;;;12.14;71.97;101032.81;5038689;28;20283;-72
2023/04/09 09:04:58;;;;;;;7.17;6.57;;;;;;;12.09;70.74;101029.38;5030290;28;20207;-72
2023/04/09 09:07:23;;;;;;;7.97;7.37;;;;;;;12.08;70.55;101036.28;5029905;28;20190;-73
2023/04/09 09:09:54;;;;;;;7.73;7.03;;;;;;;12.28;71.07;101027.59;5031933;28;20617;-73
2023/04/09 09:12:52;;;;;;;7.20;6.60;;;;;;;12.64;69.67;101033.44;5026737;28;20195;-73
2023/04/09 09:15:28;;;;;;;5.93;5.43;;;;;;;12.81;64.97;101029.03;5018823;28;20225;-72
2023/04/09 09:17:58;;;;;;;7.30;6.70;;;;;;;13.03;64.77;101030.59;5029447;28;20232;-73
2023/04/09 09:20:24;;;;;;;6.53;5.93;;;;;;;13.22;64.65;101037.41;5027649;28;20191;-73
2023/04/09 09:22:52;;;;;;;5.00;4.60;;;;;;;13.26;64.19;101033.03;5029210;28;20189;-74
2023/04/09 09:25:17;;;;;;;3.27;3.07;;;;;;;13.52;62.40;101029.41;5038432;28;20211;-73
2023/04/09 09:27:42;;;;;;;3.33;3.03;;;;;;;13.68;63.05;101027.50;5032568;28;20543;-72
2023/04/09 09:30:19;;;;;;;3.40;3.10;;;;;;;13.86;62.70;101024.72;5032103;28;20187;-72
2023/04/09 09:32:44;;;;;;;3.37;3.13;;;;;;;13.81;59.24;101028.25;5025404;28;20697;-74
2023/04/09 09:35:10;;;;;;;3.90;3.60;;;;;;;14.08;60.23;101024.44;5030988;28;20229;-73
2023/04/09 09:37:35;;;;;;;4.60;4.20;;;;;;;14.06;60.06;101025.34;5029419;28;20185;-73
2023/04/09 09:40:02;;;;;;;4.00;3.70;;;;;;;13.95;57.88;101036.75;5038442;28;20178;-73
2023/04/09 09:42:28;;;;;;;4.00;3.70;;;;;;;14.19;58.95;101032.13;5032304;28;20563;-73
2023/04/09 09:44:54;;;;;;;3.17;2.97;;;;;;;14.43;59.90;101032.72;5033939;28;20217;-72
2023/04/09 09:47:20;;;;;;;3.90;3.60;;;;;;;14.53;59.13;101025.63;5029802;28;20186;-73
2023/04/09 09:49:50;;;;;;;4.13;3.83;;;;;;;14.43;57.80;101024.91;5037810;28;20189;-74
2023/04/09 09:52:23;;;;;;;3.40;3.10;;;;;;;14.73;59.02;101023.66;5034979;28;20728;-75
2023/04/09 09:54:53;;;;;;;3.13;2.93;;;;;;;15.04;59.05;101031.00;5043955;28;20603;-73
2023/04/09 09:57:21;;;;;;;3.10;2.90;;;;;;;15.26;57.80;101019.38;5031516;28;20183;-75
2023/04/09 10:00:05;;;;;;;4.40;4.10;;;;;;;15.15;59.03;101029.97;5027398;28;20269;-73
2023/04/09 10:02:36;;;;;;;5.90;5.40;;;;;;;14.88;60.04;101027.78;5034311;28;20195;-74
2023/04/09 10:05:03;;;;;;;5.17;4.77;;;;;;;14.77;61.29;101021.84;5032346;28;20215;-72
2023/04/09 10:07:29;;;;;;;5.40;4.97;;;;;;;14.65;61.96;101025.50;5034508;28;20187;-74
2023/04/09 10:09:57;;;;;;;5.80;5.30;;;;;;;14.38;62.23;101026.72;5036054;28;20194;-73
2023/04/09 10:12:24;;;;;;;5.33;4.90;;;;;;;14.46;63.00;101015.31;5034444;28;20197;-74
2023/04/09 10:14:51;;;;;;;6.10;5.60;;;;;;;14.69;61.94;101015.91;5033518;28;20211;-73
2023/04/09 10:17:18;;;;;;;5.93;5.47;;;;;;;14.75;63.16;101027.09;5031353;28;20190;-71
2023/04/09 10:19:55;;;;;;;5.47;5.07;;;;;;;14.98;61.82;101017.22;5032149;28;20184;-73
2023/04/09 10:22:25;;;;;;;5.97;5.47;;;;;;;15.17;62.50;101015.16;5033052;28;20190;-73
2023/04/09 10:24:51;;;;;;;5.93;5.43;;;;;;;15.14;61.49;101020.41;5034201;28;20203;-74
2023/04/09 10:27:17;;;;;;;5.03;4.63;;;;;;;15.42;61.49;101013.00;5035291;28;20855;-74
2023/04/09 10:29:47;;;;;;;5.20;4.80;;;;;;;15.63;60.92;101013.53;5033386;28;20898;-73
2023/04/09 10:32:19;;;;;;;5.07;4.67;;;;;;;15.95;60.39;101005.09;5032521;28;20202;-73
2023/04/09 10:34:45;;;;;;;5.30;4.90;;;;;;;15.84;59.56;101015.72;5036186;28;20214;-74
2023/04/09 10:37:19;;;;;;;4.90;4.50;;;;;;;15.87;59.68;101012.22;5029826;28;20202;-73
2023/04/09 10:39:46;;;;;;;5.13;4.73;;;;;;;15.70;58.82;101009.91;5033620;28;20181;-73
2023/04/09 10:42:20;;;;;;;4.23;3.93;;;;;;;16.06;59.10;101006.63;5031571;28;20187;-74
2023/04/09 10:45:02;;;;;;;4.33;4.03;;;;;;;15.94;59.13;101003.38;5033590;28;20209;-73
2023/04/09 10:47:32;;;;;;;5.33;4.93;;;;;;;15.75;58.38;101009.81;5031987;28;20257;-73
2023/04/09 10:50:13;;;;;;;4.30;4.00;;;;;;;15.99;58.55;100996.31;5033320;28;20212;-73
2023/04/09 10:52:40;;;;;;;4.77;4.40;;;;;;;16.34;58.68;100995.59;5030610;28;20596;-74
2023/04/09 10:55:06;;;;;;;4.77;4.37;;;;;;;16.63;58.09;100994.13;5030204;28;20225;-73
2023/04/09 10:57:31;;;;;;;3.80;3.50;;;;;;;16.85;57.28;100994.47;5032213;28;20215;-73
2023/04/09 10:59:56;;;;;;;4.20;3.90;;;;;;;16.99;56.70;100986.31;5033699;28;20543;-73
2023/04/09 11:02:37;;;;;;;4.70;4.30;;;;;;;16.14;56.64;100987.28;5031953;28;20192;-74
2023/04/09 11:05:05;;;;;;;4.87;4.47;;;;;;;16.12;57.21;100983.84;5027829;28;20203;-73
2023/04/09 11:07:35;;;;;;;3.87;3.57;;;;;;;16.33;57.80;100975.63;5029318;28;20260;-73
2023/04/09 11:10:00;;;;;;;4.37;4.00;;;;;;;16.44;57.33;100984.91;5030027;28;20194;-73
2023/04/09 11:12:26;;;;;;;4.83;4.47;;;;;;;16.29;58.10;100980.91;5033874;28;20204;-74
2023/04/09 11:14:51;;;;;;;3.90;3.60;;;;;;;16.64;57.21;100980.16;5027847;28;20451;-74
2023/04/09 11:17:17;;;;;;;4.40;4.10;;;;;;;16.69;57.45;100988.72;5043135;28;20722;-73
2023/04/09 11:19:43;;;;;;;4.63;4.33;;;;;;;16.56;56.84;100975.94;5026508;28;20191;-74
2023/04/09 11:22:09;;;;;;;5.00;4.60;;;;;;;16.51;56.49;100979.56;5029722;28;20229;-74